Time;durP1;ratioP1;P1;durP2;ratioP2;P2;SDS_P1;SDS_P2;PMS_P1;PMS_P2;Temp;Humidity;BMP_temperature;BMP_pressure;BME280_temperature;BME280_humidity;BME280_pressure;Samples;Min_cycle;Max_cycle;Signal;HPM_P1;HPM_P2
2023/05/13 00:00:12;;;;;;;1.70;1.60;;;19.90;56.40;;;;;;5031486;28;20263;-80
2023/05/13 00:02:39;;;;;;;2.15;1.90;;;19.90;56.40;;;;;;5030297;28;20236;-81
2023/05/13 00:05:06;;;;;;;1.70;1.60;;;19.90;56.30;;;;;;5013772;28;20254;-81
2023/05/13 00:07:34;;;;;;;3.17;1.55;;;19.90;56.40;;;;;;5013395;28;20196;-81
2023/05/13 00:10:01;;;;;;;2.05;1.70;;;19.90;56.40;;;;;;4996904;28;20236;-81
2023/05/13 00:12:29;;;;;;;2.08;1.90;;;19.90;56.40;;;;;;4996385;28;20221;-81
2023/05/13 00:14:57;;;;;;;1.90;1.80;;;19.80;56.20;;;;;;5014491;28;20620;-81
2023/05/13 00:17:23;;;;;;;2.00;1.80;;;19.90;56.20;;;;;;5017427;28;20197;-81
2023/05/13 00:26:20;;;;;;;2.10;1.90;;;19.80;56.10;;;;;;5018572;28;20678;-78
2023/05/13 00:28:51;;;;;;;3.30;1.85;;;19.80;56.00;;;;;;5001018;28;20255;-78
2023/05/13 00:31:18;;;;;;;1.80;1.70;;;19.80;56.00;;;;;;5000775;28;20225;-78
2023/05/13 00:33:46;;;;;;;1.90;1.80;;;19.80;56.10;;;;;;5000957;28;20197;-78
2023/05/13 00:36:13;;;;;;;1.88;1.77;;;19.80;56.10;;;;;;5015088;22;20232;-77
2023/05/13 00:38:42;;;;;;;1.95;1.73;;;19.70;55.90;;;;;;4999783;28;20231;-77
2023/05/13 00:41:10;;;;;;;2.20;2.00;;;19.80;56.00;;;;;;4999581;28;20259;-77
2023/05/13 00:43:37;;;;;;;2.08;1.92;;;19.70;56.00;;;;;;4999699;28;20217;-77
2023/05/13 00:46:05;;;;;;;1.95;1.85;;;19.70;55.90;;;;;;4999709;28;20609;-77
2023/05/13 00:48:33;;;;;;;2.17;1.88;;;19.70;56.00;;;;;;5000352;28;20690;-76
2023/05/13 00:51:00;;;;;;;1.83;1.70;;;19.70;56.00;;;;;;4999585;28;20224;-76
2023/05/13 00:53:27;;;;;;;2.17;2.03;;;19.70;55.90;;;;;;4999614;28;20193;-76
2023/05/13 00:55:54;;;;;;;1.70;1.60;;;19.70;55.90;;;;;;5002946;28;20204;-76
2023/05/13 00:58:22;;;;;;;2.15;2.00;;;19.70;56.00;;;;;;5002726;28;20730;-76
2023/05/13 01:00:54;;;;;;;2.00;1.90;;;19.70;55.90;;;;;;4983772;28;20199;-76
2023/05/13 01:03:27;;;;;;;2.05;1.95;;;19.70;55.80;;;;;;4999389;28;20213;-76
2023/05/13 01:05:58;;;;;;;2.15;1.80;;;19.70;55.90;;;;;;4999464;28;20193;-76
2023/05/13 01:08:31;;;;;;;2.03;1.90;;;19.70;55.90;;;;;;4983979;28;20233;-76
2023/05/13 01:11:01;;;;;;;1.95;1.63;;;19.70;55.90;;;;;;4999151;28;20204;-76
2023/05/13 01:13:31;;;;;;;2.55;1.80;;;19.60;55.70;;;;;;4999238;28;20193;-76
2023/05/13 01:16:01;;;;;;;1.90;1.80;;;19.60;55.80;;;;;;4999079;28;20185;-76
2023/05/13 01:18:33;;;;;;;1.92;1.83;;;19.70;55.90;;;;;;4999040;28;20204;-76
2023/05/13 01:21:01;;;;;;;1.90;1.80;;;19.60;55.70;;;;;;4999012;28;20193;-76
2023/05/13 01:23:30;;;;;;;1.83;1.73;;;19.60;55.80;;;;;;4998799;28;20304;-76
2023/05/13 01:25:57;;;;;;;1.98;1.80;;;19.60;55.70;;;;;;4997898;28;20219;-76
2023/05/13 01:28:25;;;;;;;2.08;1.70;;;19.60;55.70;;;;;;4998897;28;20244;-76
2023/05/13 01:30:55;;;;;;;2.40;1.80;;;19.60;55.70;;;;;;4999200;28;20228;-76
2023/05/13 01:33:22;;;;;;;1.92;1.83;;;19.60;55.80;;;;;;4999200;28;20222;-76
2023/05/13 01:35:50;;;;;;;2.33;1.80;;;19.60;55.80;;;;;;4999313;28;20255;-76
2023/05/13 01:38:19;;;;;;;1.70;1.60;;;19.60;55.70;;;;;;4999094;28;20200;-76
2023/05/13 01:40:51;;;;;;;2.10;1.90;;;19.60;55.90;;;;;;4998787;28;20280;-76
2023/05/13 01:43:18;;;;;;;2.10;1.75;;;19.60;55.90;;;;;;4998776;28;20219;-76
2023/05/13 01:45:47;;;;;;;1.80;1.70;;;19.60;56.00;;;;;;4998929;28;20204;-76
2023/05/13 01:48:15;;;;;;;2.17;1.60;;;19.60;56.00;;;;;;4999022;28;20197;-76
2023/05/13 01:50:45;;;;;;;2.10;2.00;;;19.50;55.90;;;;;;4999338;28;20201;-76
2023/05/13 01:53:12;;;;;;;2.10;1.90;;;19.50;55.80;;;;;;4998863;28;20304;-76
2023/05/13 01:55:40;;;;;;;2.10;2.00;;;19.50;55.90;;;;;;4999014;28;20196;-76
2023/05/13 01:58:08;;;;;;;1.70;1.60;;;19.50;55.90;;;;;;4999534;28;20251;-76
2023/05/13 02:00:35;;;;;;;1.60;1.50;;;19.50;55.90;;;;;;5000642;28;20193;-76
2023/05/13 02:03:02;;;;;;;2.45;1.70;;;19.50;55.90;;;;;;5002666;28;20224;-76
2023/05/13 02:05:30;;;;;;;2.25;1.63;;;19.50;56.00;;;;;;5001638;28;20706;-76
2023/05/13 02:07:58;;;;;;;3.25;1.83;;;19.50;56.10;;;;;;4984423;28;20694;-76
2023/05/13 02:10:25;;;;;;;2.00;1.90;;;19.40;55.90;;;;;;5016399;28;20203;-76
2023/05/13 02:12:53;;;;;;;1.90;1.80;;;19.40;55.90;;;;;;4998734;28;20224;-76
2023/05/13 02:15:21;;;;;;;2.45;1.95;;;19.40;56.00;;;;;;4982217;28;20201;-76
2023/05/13 02:17:48;;;;;;;2.10;1.90;;;19.50;56.00;;;;;;4998265;28;20576;-76
2023/05/13 02:20:15;;;;;;;2.05;1.95;;;19.40;55.90;;;;;;4997997;28;20308;-76
2023/05/13 02:22:43;;;;;;;1.90;1.80;;;19.40;55.90;;;;;;4998954;28;20252;-76
2023/05/13 02:25:10;;;;;;;2.03;1.90;;;19.40;55.80;;;;;;4998762;28;20223;-76
2023/05/13 02:27:37;;;;;;;2.08;1.98;;;19.40;55.90;;;;;;4998039;28;20196;-76
2023/05/13 02:30:06;;;;;;;1.60;1.50;;;19.40;55.80;;;;;;4997957;28;20197;-76
2023/05/13 02:32:34;;;;;;;1.85;1.75;;;19.40;56.00;;;;;;4998117;28;20271;-76
2023/05/13 02:35:02;;;;;;;2.20;2.00;;;19.40;55.80;;;;;;4998154;28;20197;-76
2023/05/13 02:37:29;;;;;;;1.70;1.60;;;19.40;55.90;;;;;;4997748;28;20762;-76
2023/05/13 02:40:11;;;;;;;1.80;1.70;;;19.40;55.80;;;;;;4998322;28;20193;-76
2023/05/13 02:42:39;;;;;;;2.10;1.77;;;19.40;56.00;;;;;;4997528;28;20212;-76
2023/05/13 02:45:08;;;;;;;1.90;1.80;;;19.40;55.90;;;;;;4997396;28;20241;-76
2023/05/13 02:47:39;;;;;;;1.90;1.80;;;19.40;55.90;;;;;;4997577;28;20193;-76
2023/05/13 02:50:08;;;;;;;1.77;1.67;;;19.40;55.90;;;;;;4997256;28;20201;-76
2023/05/13 02:52:37;;;;;;;1.75;1.65;;;19.40;56.00;;;;;;4997198;28;20270;-76
2023/05/13 02:55:07;;;;;;;1.80;1.70;;;19.40;55.90;;;;;;4997390;28;20287;-76
2023/05/13 02:57:36;;;;;;;2.00;1.90;;;19.30;55.70;;;;;;4997263;28;20648;-76
2023/05/13 03:00:04;;;;;;;1.65;1.55;;;19.30;55.70;;;;;;4997048;28;20650;-76
2023/05/13 03:02:31;;;;;;;1.75;1.65;;;19.30;55.70;;;;;;4980909;28;20217;-76
2023/05/13 03:04:59;;;;;;;1.65;1.55;;;19.40;55.80;;;;;;4996867;28;20220;-76
2023/05/13 03:07:27;;;;;;;2.08;1.80;;;19.30;55.60;;;;;;4997790;28;20200;-76
2023/05/13 03:09:53;;;;;;;1.70;1.60;;;19.30;55.70;;;;;;4997054;28;20192;-77
2023/05/13 03:12:20;;;;;;;1.80;1.70;;;19.30;55.80;;;;;;4996693;28;20220;-77
2023/05/13 03:14:48;;;;;;;1.80;1.70;;;19.30;55.80;;;;;;4997040;28;20622;-77
2023/05/13 03:17:15;;;;;;;1.80;1.70;;;19.40;56.00;;;;;;4996868;28;20290;-77
2023/05/13 03:19:42;;;;;;;2.30;1.70;;;19.40;55.90;;;;;;4996972;28;20221;-77
2023/05/13 03:22:10;;;;;;;2.22;1.52;;;19.40;55.70;;;;;;4996689;28;20219;-77
2023/05/13 03:24:37;;;;;;;1.60;1.50;;;19.40;55.90;;;;;;4997005;28;20223;-77
2023/05/13 03:27:05;;;;;;;1.63;1.52;;;19.50;55.90;;;;;;4998995;28;20715;-77
2023/05/13 03:29:32;;;;;;;1.70;1.60;;;19.50;55.70;;;;;;5000875;28;20201;-77
2023/05/13 03:31:59;;;;;;;1.70;1.60;;;19.60;55.70;;;;;;4999842;28;20694;-77
2023/05/13 03:34:27;;;;;;;1.58;1.48;;;19.60;55.50;;;;;;4996643;28;20651;-77
2023/05/13 03:36:54;;;;;;;1.90;1.70;;;19.60;55.40;;;;;;4996784;28;20204;-77
2023/05/13 03:39:22;;;;;;;2.67;1.67;;;19.60;55.10;;;;;;4996583;28;20258;-77
2023/05/13 03:41:50;;;;;;;1.85;1.75;;;19.70;55.20;;;;;;4996559;28;20753;-77
2023/05/13 03:44:17;;;;;;;1.60;1.50;;;19.70;55.30;;;;;;4980520;28;20212;-77
2023/05/13 03:46:44;;;;;;;1.70;1.60;;;19.70;55.00;;;;;;4997336;28;20239;-77
2023/05/13 03:49:11;;;;;;;1.52;1.42;;;19.70;55.00;;;;;;4980689;28;20223;-77
2023/05/13 03:51:38;;;;;;;1.60;1.50;;;19.70;54.70;;;;;;4996455;28;20220;-77
2023/05/13 03:54:06;;;;;;;1.73;1.63;;;19.70;55.10;;;;;;4996718;28;20204;-77
2023/05/13 03:56:35;;;;;;;1.95;1.85;;;19.70;54.80;;;;;;4996486;28;20667;-77
2023/05/13 03:59:02;;;;;;;1.83;1.73;;;19.80;54.40;;;;;;4996400;28;20255;-77
2023/05/13 04:01:29;;;;;;;1.70;1.60;;;19.80;54.60;;;;;;4996815;28;20224;-76
2023/05/13 04:03:57;;;;;;;1.90;1.80;;;19.80;54.80;;;;;;4996248;28;20220;-76
2023/05/13 04:06:24;;;;;;;1.73;1.63;;;19.80;54.70;;;;;;4996315;28;20207;-76
2023/05/13 04:08:51;;;;;;;1.95;1.70;;;19.80;54.70;;;;;;4996215;28;20205;-76
2023/05/13 04:11:18;;;;;;;1.70;1.60;;;19.80;54.60;;;;;;4980143;28;20227;-76
2023/05/13 04:13:46;;;;;;;1.70;1.60;;;19.80;54.60;;;;;;4996445;28;20573;-76
2023/05/13 04:16:14;;;;;;;2.97;1.80;;;19.80;54.40;;;;;;4996266;28;20205;-76
2023/05/13 04:18:41;;;;;;;2.10;1.75;;;19.80;54.40;;;;;;4996426;28;20208;-76
2023/05/13 04:21:08;;;;;;;1.83;1.73;;;19.80;54.40;;;;;;4996225;28;20228;-76
2023/05/13 04:23:35;;;;;;;1.83;1.73;;;19.80;54.40;;;;;;4996060;28;20196;-76
2023/05/13 04:26:03;;;;;;;1.77;1.67;;;19.80;54.40;;;;;;4996111;28;20200;-76
2023/05/13 04:28:30;;;;;;;2.00;1.80;;;19.80;54.40;;;;;;4980388;28;20733;-76
2023/05/13 04:30:59;;;;;;;2.00;1.80;;;19.80;54.40;;;;;;4997018;28;20272;-76
2023/05/13 04:33:26;;;;;;;1.63;1.52;;;19.80;54.40;;;;;;4996527;28;20232;-77
2023/05/13 04:35:53;;;;;;;1.88;1.70;;;19.70;54.40;;;;;;4996745;28;20200;-77
2023/05/13 04:38:20;;;;;;;1.77;1.67;;;19.80;54.40;;;;;;4996107;28;20675;-77
2023/05/13 04:40:48;;;;;;;1.70;1.60;;;19.80;54.40;;;;;;4980363;28;20714;-77
2023/05/13 04:43:21;;;;;;;2.00;1.88;;;19.80;54.40;;;;;;4996336;28;20201;-77
2023/05/13 04:45:53;;;;;;;1.73;1.63;;;19.80;54.40;;;;;;4980838;28;20215;-77
2023/05/13 04:48:22;;;;;;;1.70;1.60;;;19.80;54.40;;;;;;4996762;28;20280;-77
2023/05/13 04:50:51;;;;;;;1.80;1.70;;;19.80;54.40;;;;;;4996248;28;20682;-77
2023/05/13 04:53:18;;;;;;;1.98;1.88;;;19.70;54.40;;;;;;4996086;28;20251;-77
2023/05/13 04:55:46;;;;;;;1.80;1.70;;;19.70;54.50;;;;;;4996529;28;20204;-77
2023/05/13 04:58:13;;;;;;;1.98;1.88;;;19.70;54.40;;;;;;4997150;28;20205;-77
2023/05/13 05:00:40;;;;;;;1.60;1.50;;;19.70;54.60;;;;;;4995973;28;20197;-77
2023/05/13 05:03:08;;;;;;;1.70;1.60;;;19.70;54.40;;;;;;4998892;28;20213;-76
2023/05/13 05:05:36;;;;;;;2.05;1.88;;;19.60;54.40;;;;;;4999344;28;20225;-78
2023/05/13 05:08:04;;;;;;;2.50;1.83;;;19.60;54.50;;;;;;4967479;28;20267;-77
2023/05/13 05:10:31;;;;;;;1.70;1.60;;;19.60;54.50;;;;;;5000386;28;20235;-77
2023/05/13 05:13:00;;;;;;;4.80;1.85;;;19.60;54.60;;;;;;4999231;28;20307;-77
2023/05/13 05:15:28;;;;;;;1.90;1.80;;;19.60;54.70;;;;;;4999447;28;20185;-78
2023/05/13 05:17:57;;;;;;;1.77;1.60;;;19.60;54.70;;;;;;4999681;28;20327;-78
2023/05/13 05:20:24;;;;;;;1.90;1.80;;;19.60;54.60;;;;;;4983207;28;20263;-77
2023/05/13 05:22:55;;;;;;;1.83;1.73;;;19.60;54.80;;;;;;4999359;28;20586;-77
2023/05/13 05:25:24;;;;;;;2.03;1.90;;;19.60;54.80;;;;;;4999792;28;20235;-78
2023/05/13 05:27:52;;;;;;;1.77;1.67;;;19.60;54.70;;;;;;4983025;28;20682;-78
2023/05/13 05:30:19;;;;;;;3.15;1.70;;;19.60;54.60;;;;;;4998828;28;20229;-78
2023/05/13 05:32:51;;;;;;;1.70;1.60;;;19.60;54.60;;;;;;4998773;28;20227;-78
2023/05/13 05:35:19;;;;;;;1.80;1.70;;;19.60;54.70;;;;;;4998716;28;20254;-78
2023/05/13 05:37:46;;;;;;;1.88;1.77;;;19.60;54.70;;;;;;4998814;28;20271;-78
2023/05/13 05:40:15;;;;;;;1.67;1.58;;;19.60;54.70;;;;;;4983056;28;20287;-78
2023/05/13 05:42:42;;;;;;;2.03;1.85;;;19.60;54.70;;;;;;4999647;28;20303;-78
2023/05/13 05:45:10;;;;;;;2.33;2.10;;;19.50;54.70;;;;;;4998457;28;20217;-78
2023/05/13 05:47:38;;;;;;;1.92;1.75;;;19.50;54.50;;;;;;4998843;28;20219;-78
2023/05/13 05:50:06;;;;;;;2.30;1.88;;;19.60;54.70;;;;;;4998568;28;20266;-78
2023/05/13 05:52:33;;;;;;;1.83;1.63;;;19.50;54.60;;;;;;4998227;28;20239;-78
2023/05/13 05:55:00;;;;;;;1.77;1.67;;;19.60;54.70;;;;;;4998306;28;20216;-78
2023/05/13 05:57:28;;;;;;;2.25;1.90;;;19.50;54.70;;;;;;4998393;28;20211;-78
2023/05/13 05:59:56;;;;;;;1.63;1.52;;;19.50;54.50;;;;;;4998317;28;20218;-78
2023/05/13 06:02:23;;;;;;;1.80;1.70;;;19.50;54.30;;;;;;4998642;28;20216;-78
2023/05/13 06:04:51;;;;;;;2.03;1.90;;;19.60;54.70;;;;;;4998042;28;20274;-78
2023/05/13 06:07:19;;;;;;;1.80;1.70;;;19.60;54.60;;;;;;4998152;28;20201;-78
2023/05/13 06:09:47;;;;;;;1.88;1.77;;;19.60;54.80;;;;;;4998108;28;20232;-78
2023/05/13 06:12:14;;;;;;;2.47;2.10;;;19.60;54.70;;;;;;4997556;28;20224;-78
2023/05/13 06:14:42;;;;;;;2.10;1.90;;;19.60;54.50;;;;;;4998069;28;20193;-77
2023/05/13 06:17:09;;;;;;;1.80;1.70;;;19.70;55.10;;;;;;4998194;28;20200;-77
2023/05/13 06:19:36;;;;;;;1.80;1.70;;;19.70;54.30;;;;;;4999998;28;20548;-78
2023/05/13 06:22:03;;;;;;;1.67;1.58;;;19.70;54.30;;;;;;4997962;28;20626;-77
2023/05/13 06:24:30;;;;;;;2.15;1.98;;;19.80;54.20;;;;;;4997729;28;20592;-77
2023/05/13 06:26:57;;;;;;;2.42;1.63;;;19.80;54.10;;;;;;4999538;28;20259;-77
2023/05/13 06:29:27;;;;;;;1.80;1.70;;;19.70;53.90;;;;;;4999194;28;20200;-77
2023/05/13 06:31:56;;;;;;;2.05;1.90;;;19.80;53.80;;;;;;4997480;28;20248;-77
2023/05/13 06:37:05;;;;;;;1.90;1.80;;;19.80;53.90;;;;;;5013724;28;20263;-79
2023/05/13 06:39:32;;;;;;;2.20;2.00;;;19.90;53.90;;;;;;5014425;28;20200;-79
2023/05/13 06:41:59;;;;;;;2.05;1.95;;;19.90;54.30;;;;;;5015105;28;20252;-79
2023/05/13 06:44:31;;;;;;;1.85;1.75;;;19.90;53.60;;;;;;5015432;28;20199;-79
2023/05/13 06:47:01;;;;;;;2.03;1.80;;;19.90;53.50;;;;;;5015375;28;20193;-80
2023/05/13 06:49:28;;;;;;;2.25;1.90;;;19.90;53.60;;;;;;5014810;28;20674;-80
2023/05/13 06:51:55;;;;;;;1.75;1.65;;;19.90;53.30;;;;;;5014574;28;20243;-80
2023/05/13 06:54:23;;;;;;;2.35;1.70;;;19.90;53.30;;;;;;5014378;28;20205;-80
2023/05/13 06:56:51;;;;;;;1.70;1.60;;;20.00;53.40;;;;;;5015725;28;20208;-80
2023/05/13 06:59:19;;;;;;;1.90;1.80;;;20.00;53.50;;;;;;4998401;28;20192;-80
2023/05/13 07:01:46;;;;;;;1.70;1.60;;;20.00;53.50;;;;;;5014228;28;20220;-80
2023/05/13 07:04:15;;;;;;;1.80;1.70;;;20.00;53.20;;;;;;5014318;28;20243;-80
2023/05/13 07:06:42;;;;;;;2.22;2.05;;;20.00;53.10;;;;;;5013956;28;20221;-80
2023/05/13 07:09:09;;;;;;;2.05;1.88;;;20.00;53.30;;;;;;5013905;28;20315;-80
2023/05/13 07:11:37;;;;;;;2.08;1.88;;;20.00;53.30;;;;;;5013772;28;20315;-80
2023/05/13 07:14:04;;;;;;;1.98;1.88;;;20.00;53.20;;;;;;5014110;28;20279;-80
2023/05/13 07:16:31;;;;;;;2.17;2.00;;;20.00;53.10;;;;;;5013753;28;20200;-80
2023/05/13 07:18:58;;;;;;;2.40;2.20;;;20.00;53.10;;;;;;5014746;28;20189;-80
2023/05/13 07:21:27;;;;;;;2.10;2.00;;;20.00;53.00;;;;;;5016711;28;20204;-80
2023/05/13 07:23:55;;;;;;;2.20;2.10;;;20.00;52.90;;;;;;4997367;28;20207;-80
2023/05/13 07:26:22;;;;;;;1.60;1.50;;;20.00;53.10;;;;;;5014275;28;20227;-80
2023/05/13 07:28:49;;;;;;;2.13;1.70;;;20.10;52.90;;;;;;5014657;28;20284;-80
2023/05/13 07:31:16;;;;;;;1.90;1.80;;;20.10;52.80;;;;;;4997878;28;20221;-80
2023/05/13 07:33:43;;;;;;;4.55;1.80;;;20.10;52.90;;;;;;5014196;28;20196;-80
2023/05/13 07:36:11;;;;;;;2.78;1.90;;;20.10;52.90;;;;;;5013473;28;20208;-80
2023/05/13 07:38:40;;;;;;;2.15;2.00;;;20.20;53.00;;;;;;5013766;28;20659;-80
2023/05/13 07:41:07;;;;;;;2.10;2.00;;;20.20;52.90;;;;;;5013896;28;20232;-80
2023/05/13 07:43:34;;;;;;;1.90;1.80;;;20.20;52.70;;;;;;5013935;28;20220;-80
2023/05/13 07:46:02;;;;;;;2.00;1.90;;;20.20;52.60;;;;;;5013424;28;20217;-80
2023/05/13 07:48:30;;;;;;;3.95;1.85;;;20.20;52.50;;;;;;5013619;28;20291;-80
2023/05/13 07:50:57;;;;;;;1.58;1.48;;;20.20;52.50;;;;;;5013519;28;20630;-80
2023/05/13 07:53:25;;;;;;;2.45;2.25;;;20.20;52.50;;;;;;5013337;28;20573;-80
2023/05/13 07:55:53;;;;;;;1.92;1.80;;;20.20;52.50;;;;;;5013244;28;20201;-80
2023/05/13 07:58:20;;;;;;;2.10;1.90;;;20.20;52.50;;;;;;5013103;28;20205;-80
2023/05/13 08:00:48;;;;;;;1.80;1.70;;;20.30;52.60;;;;;;5014610;28;20283;-80
2023/05/13 08:03:15;;;;;;;1.90;1.80;;;20.30;52.60;;;;;;5013367;28;20200;-80
2023/05/13 08:05:42;;;;;;;1.75;1.65;;;20.20;52.50;;;;;;5013135;28;20709;-80
2023/05/13 08:08:10;;;;;;;1.85;1.75;;;20.30;52.50;;;;;;4997171;28;20211;-80
2023/05/13 08:10:38;;;;;;;1.90;1.80;;;20.30;52.20;;;;;;5013321;28;20565;-80
2023/05/13 08:13:06;;;;;;;2.15;1.95;;;20.30;52.60;;;;;;5013510;28;20220;-80
2023/05/13 08:15:33;;;;;;;1.90;1.80;;;20.30;52.60;;;;;;5014875;28;20185;-80
2023/05/13 08:18:00;;;;;;;1.90;1.80;;;20.30;52.40;;;;;;5014121;28;20626;-80
2023/05/13 08:20:29;;;;;;;2.05;1.88;;;20.30;52.40;;;;;;5012940;28;20220;-80
2023/05/13 08:22:57;;;;;;;1.90;1.77;;;20.30;52.40;;;;;;5013142;28;20226;-80
2023/05/13 08:25:24;;;;;;;2.20;2.00;;;20.30;52.60;;;;;;5013109;28;20702;-80
2023/05/13 08:27:51;;;;;;;2.63;2.00;;;20.20;52.30;;;;;;5013442;28;20199;-80
2023/05/13 08:30:20;;;;;;;2.42;1.88;;;20.20;52.70;;;;;;5013927;28;20197;-80
2023/05/13 08:32:51;;;;;;;2.15;1.95;;;20.20;52.30;;;;;;5013490;28;20691;-80
2023/05/13 08:35:18;;;;;;;1.92;1.83;;;20.20;52.40;;;;;;5013856;28;20274;-80
2023/05/13 08:37:48;;;;;;;2.40;1.90;;;20.20;52.10;;;;;;5016831;28;20189;-80
2023/05/13 08:40:14;;;;;;;2.10;2.00;;;20.20;52.50;;;;;;5017281;28;20235;-79
2023/05/13 08:42:43;;;;;;;2.20;1.75;;;20.20;52.40;;;;;;5016712;28;20224;-82
2023/05/13 08:45:10;;;;;;;2.10;1.98;;;20.20;52.10;;;;;;5016502;28;20235;-81
2023/05/13 08:47:58;;;;;;;2.38;2.17;;;20.30;52.40;;;;;;5016678;28;20207;-82
2023/05/13 08:50:27;;;;;;;2.10;1.90;;;20.30;51.90;;;;;;5018024;28;20239;-82
2023/05/13 08:52:54;;;;;;;2.20;2.00;;;20.30;51.80;;;;;;5018309;28;20227;-82
2023/05/13 08:55:22;;;;;;;2.75;2.00;;;20.30;52.20;;;;;;5017461;28;20219;-82
2023/05/13 08:57:50;;;;;;;2.63;2.22;;;20.40;52.30;;;;;;5017268;28;20655;-82
2023/05/13 09:00:17;;;;;;;2.05;1.90;;;20.40;52.10;;;;;;5017163;28;20200;-82
2023/05/13 09:02:46;;;;;;;1.90;1.80;;;20.40;52.20;;;;;;5017877;28;20221;-82
2023/05/13 09:05:13;;;;;;;3.92;2.00;;;20.40;52.20;;;;;;5016860;28;20254;-81
2023/05/13 09:07:40;;;;;;;2.83;2.47;;;20.40;52.60;;;;;;5017084;28;20201;-81
2023/05/13 09:10:09;;;;;;;2.72;2.05;;;20.40;52.40;;;;;;5016696;28;20574;-82
2023/05/13 09:12:43;;;;;;;2.42;2.03;;;20.50;52.90;;;;;;5016846;28;20225;-82
2023/05/13 09:15:11;;;;;;;2.13;2.03;;;20.50;53.00;;;;;;5017184;28;20291;-82
2023/05/13 09:17:39;;;;;;;2.35;1.85;;;20.50;53.10;;;;;;5016745;28;20197;-82
2023/05/13 09:20:12;;;;;;;4.43;2.28;;;20.50;52.80;;;;;;5016365;28;20196;-81
2023/05/13 09:22:46;;;;;;;174.02;72.78;;;20.50;53.00;;;;;;5016381;28;20864;-81
2023/05/13 09:25:13;;;;;;;284.90;174.65;;;20.50;54.00;;;;;;5000275;28;20201;-81
2023/05/13 09:27:42;;;;;;;247.50;170.15;;;20.60;55.20;;;;;;5017409;28;20685;-81
2023/05/13 09:30:10;;;;;;;539.92;332.30;;;20.60;55.30;;;;;;5016400;28;20694;-81
2023/05/13 09:32:37;;;;;;;325.13;196.93;;;20.60;55.90;;;;;;5015927;28;20228;-81
2023/05/13 09:35:24;;;;;;;303.77;187.20;;;20.60;55.40;;;;;;5015796;28;20204;-81
2023/05/13 09:37:51;;;;;;;293.63;188.55;;;20.60;55.20;;;;;;5000325;28;20247;-81
2023/05/13 09:40:18;;;;;;;275.10;173.23;;;20.60;55.40;;;;;;4999419;28;20235;-81
2023/05/13 09:42:46;;;;;;;256.23;159.10;;;20.70;55.60;;;;;;5016582;28;20316;-81
2023/05/13 09:45:13;;;;;;;238.98;148.32;;;20.70;55.40;;;;;;5017093;28;20208;-81
2023/05/13 09:47:41;;;;;;;249.43;154.43;;;20.70;55.10;;;;;;5015002;28;20220;-81
2023/05/13 09:50:08;;;;;;;228.57;144.85;;;20.70;55.40;;;;;;5017249;28;20251;-81
2023/05/13 09:52:37;;;;;;;283.27;180.80;;;20.70;55.40;;;;;;5014811;28;20252;-82
2023/05/13 09:55:05;;;;;;;221.60;142.93;;;20.70;55.60;;;;;;5014970;28;20613;-82
2023/05/13 09:57:32;;;;;;;231.00;140.65;;;20.70;55.60;;;;;;5015365;28;20216;-82
2023/05/13 10:00:00;;;;;;;212.77;134.95;;;20.70;55.50;;;;;;5015622;28;20189;-82
2023/05/13 10:02:27;;;;;;;203.02;128.85;;;20.80;55.50;;;;;;5015065;28;20224;-82
2023/05/13 10:04:55;;;;;;;225.15;145.40;;;20.80;55.20;;;;;;5015349;28;20201;-81
2023/05/13 10:07:24;;;;;;;203.70;133.13;;;20.90;55.20;;;;;;5015271;28;20299;-81
2023/05/13 10:09:54;;;;;;;165.27;113.40;;;20.90;55.30;;;;;;5014950;28;20189;-82
2023/05/13 10:12:21;;;;;;;214.32;140.52;;;20.90;55.20;;;;;;5017023;28;20259;-81
2023/05/13 10:14:49;;;;;;;221.50;150.07;;;20.90;55.00;;;;;;5015864;28;20762;-81
2023/05/13 10:17:16;;;;;;;226.38;150.00;;;20.90;55.70;;;;;;5000145;28;20193;-81
2023/05/13 10:19:43;;;;;;;198.27;132.50;;;20.90;56.90;;;;;;5015756;28;20240;-81
2023/05/13 10:22:10;;;;;;;222.95;146.07;;;21.00;56.20;;;;;;4999310;28;20209;-81
2023/05/13 10:24:38;;;;;;;200.95;132.77;;;21.00;55.70;;;;;;5015092;28;20647;-81
2023/05/13 10:27:07;;;;;;;195.02;124.85;;;21.00;56.80;;;;;;5015676;28;20212;-81
2023/05/13 10:29:35;;;;;;;193.50;126.78;;;21.00;57.70;;;;;;5016542;28;20206;-81
2023/05/13 10:32:01;;;;;;;187.68;122.57;;;21.00;57.10;;;;;;5016986;28;20224;-81
2023/05/13 10:34:30;;;;;;;158.10;103.57;;;21.00;56.00;;;;;;5000427;28;20204;-81
2023/05/13 10:37:04;;;;;;;183.50;116.35;;;21.10;55.40;;;;;;5000769;28;20193;-80
2023/05/13 10:39:57;;;;;;;143.35;94.07;;;21.10;55.50;;;;;;5016637;28;20668;-83
2023/05/13 10:42:41;;;;;;;155.25;103.78;;;21.10;54.50;;;;;;5010521;28;20221;-83
2023/05/13 10:45:09;;;;;;;145.32;97.90;;;21.10;54.40;;;;;;5018096;28;20212;-83
2023/05/13 10:47:36;;;;;;;158.65;105.80;;;21.10;53.80;;;;;;5017823;28;20244;-83
2023/05/13 10:50:06;;;;;;;154.75;103.88;;;21.20;53.60;;;;;;5016784;28;20652;-82
2023/05/13 10:52:43;;;;;;;143.25;96.22;;;21.20;53.90;;;;;;5016411;28;20323;-83
2023/05/13 10:55:15;;;;;;;146.88;97.70;;;21.20;53.60;;;;;;5017985;28;20242;-84
2023/05/13 10:57:59;;;;;;;132.25;87.28;;;21.20;53.40;;;;;;5019076;28;20193;-82
2023/05/13 11:00:30;;;;;;;126.50;85.53;;;21.20;53.50;;;;;;5017969;28;20611;-82
2023/05/13 11:02:58;;;;;;;126.88;85.93;;;21.20;53.30;;;;;;5018945;28;20220;-83
2023/05/13 11:05:26;;;;;;;114.90;76.55;;;21.20;53.10;;;;;;5019253;28;20201;-83
2023/05/13 11:07:56;;;;;;;118.07;79.07;;;21.10;52.80;;;;;;5019703;28;20216;-83
2023/05/13 11:10:26;;;;;;;150.25;99.70;;;21.10;52.70;;;;;;5016937;28;20223;-82
2023/05/13 11:13:21;;;;;;;115.13;74.20;;;21.10;53.40;;;;;;5016896;28;20220;-82
2023/05/13 11:15:49;;;;;;;110.78;70.28;;;21.10;52.90;;;;;;5016809;28;20199;-82
2023/05/13 11:18:16;;;;;;;123.63;81.65;;;21.10;52.60;;;;;;5017760;28;20200;-83
2023/05/13 11:20:46;;;;;;;110.70;73.68;;;21.10;52.80;;;;;;5017892;28;20197;-83
2023/05/13 11:23:18;;;;;;;101.93;66.22;;;21.10;52.70;;;;;;5017018;28;20299;-83
2023/05/13 11:25:45;;;;;;;99.78;66.82;;;21.10;53.20;;;;;;4984422;28;20701;-80
2023/05/13 11:28:17;;;;;;;100.22;64.43;;;21.10;53.10;;;;;;5015579;28;20668;-81
2023/05/13 11:30:55;;;;;;;74.65;49.53;;;21.10;52.80;;;;;;5015285;28;20268;-80
2023/05/13 11:33:22;;;;;;;77.15;52.55;;;21.10;52.30;;;;;;5016772;28;20557;-80
2023/05/13 11:35:56;;;;;;;75.97;51.92;;;21.10;52.30;;;;;;5016361;28;20228;-80
2023/05/13 11:38:24;;;;;;;83.93;52.92;;;21.10;52.30;;;;;;5016215;28;20223;-80
2023/05/13 11:40:51;;;;;;;64.32;46.20;;;21.10;52.80;;;;;;5015128;28;20208;-80
2023/05/13 11:43:23;;;;;;;69.13;46.42;;;21.10;52.30;;;;;;5014238;28;20227;-80
2023/05/13 11:45:50;;;;;;;74.25;46.47;;;21.10;52.40;;;;;;5014160;28;20262;-80
2023/05/13 11:48:18;;;;;;;58.28;39.65;;;21.10;52.20;;;;;;5013861;28;20705;-80
2023/05/13 11:50:46;;;;;;;55.60;40.17;;;21.20;52.40;;;;;;5014048;28;20201;-80
2023/05/13 11:53:13;;;;;;;69.40;46.53;;;21.20;52.50;;;;;;5014656;28;20201;-80
2023/05/13 11:55:40;;;;;;;57.05;40.28;;;21.20;52.30;;;;;;5014611;28;20197;-80
2023/05/13 11:58:07;;;;;;;57.50;39.90;;;21.30;52.10;;;;;;5001496;28;20200;-81
2023/05/13 12:00:36;;;;;;;60.55;38.33;;;21.30;51.90;;;;;;4997670;28;20197;-81
2023/05/13 12:03:11;;;;;;;63.47;40.72;;;21.30;51.90;;;;;;5013247;28;20231;-81
2023/05/13 12:05:38;;;;;;;57.00;39.30;;;21.30;51.70;;;;;;5014473;28;20639;-81
2023/05/13 12:08:07;;;;;;;50.38;35.88;;;21.30;52.10;;;;;;5013692;28;20221;-81
2023/05/13 12:10:33;;;;;;;53.65;37.00;;;21.30;51.90;;;;;;5014267;28;20205;-80
2023/05/13 12:13:01;;;;;;;51.85;34.63;;;21.30;51.90;;;;;;5002531;28;20225;-80
2023/05/13 12:15:28;;;;;;;54.60;34.20;;;21.30;51.90;;;;;;5018049;28;20200;-80
2023/05/13 12:17:56;;;;;;;59.85;40.65;;;21.30;52.10;;;;;;5017874;28;20200;-80
2023/05/13 12:20:23;;;;;;;52.00;33.85;;;21.30;52.30;;;;;;5017855;28;20209;-80
2023/05/13 12:22:52;;;;;;;52.03;32.95;;;21.30;52.00;;;;;;5017667;28;20274;-80
2023/05/13 12:25:33;;;;;;;47.78;31.42;;;21.30;52.00;;;;;;5018306;28;20201;-80
2023/05/13 12:28:05;;;;;;;52.38;34.72;;;21.40;52.30;;;;;;5017782;28;20274;-80
2023/05/13 12:30:33;;;;;;;53.03;34.45;;;21.40;52.20;;;;;;5018471;28;20204;-80
2023/05/13 12:33:03;;;;;;;50.47;33.28;;;21.40;52.10;;;;;;5017888;28;20220;-80
2023/05/13 12:35:31;;;;;;;45.53;31.17;;;21.40;51.90;;;;;;5027612;22;20256;-79
2023/05/13 12:38:02;;;;;;;47.80;32.72;;;21.50;52.30;;;;;;4967792;28;20197;-79
2023/05/13 12:40:30;;;;;;;50.10;32.28;;;21.50;52.00;;;;;;4999802;28;20208;-78
2023/05/13 12:42:57;;;;;;;43.55;30.38;;;21.50;51.70;;;;;;4999843;28;20221;-78
2023/05/13 12:45:28;;;;;;;42.25;29.65;;;21.50;51.70;;;;;;5000443;28;20546;-77
2023/05/13 12:47:55;;;;;;;42.80;27.52;;;21.60;52.00;;;;;;4999678;28;20240;-77
2023/05/13 12:50:24;;;;;;;43.70;29.10;;;21.60;51.90;;;;;;4999616;28;20659;-77
2023/05/13 12:52:52;;;;;;;37.50;26.20;;;21.60;51.70;;;;;;4999494;28;20661;-77